createdAt,value
2019-05-18T00:01:28.440Z,6.57
2019-05-18T00:03:01.048Z,5.87
2019-05-18T00:04:35.731Z,6.63
2019-05-18T00:06:08.165Z,5.00
2019-05-18T00:07:41.031Z,5.90
2019-05-18T00:09:13.518Z,7.13
2019-05-18T00:10:45.896Z,6.50
2019-05-18T00:12:18.432Z,9.73
2019-05-18T00:13:50.871Z,7.90
2019-05-18T00:15:23.285Z,7.33
2019-05-18T00:16:55.780Z,6.10
2019-05-18T00:18:28.222Z,11.23
2019-05-18T00:20:00.649Z,4.97
2019-05-18T00:21:33.337Z,7.97
2019-05-18T00:23:05.849Z,8.07
2019-05-18T00:24:38.261Z,6.10
2019-05-18T00:26:10.693Z,4.90
2019-05-18T00:27:43.114Z,5.30
2019-05-18T00:29:15.612Z,5.67
2019-05-18T00:30:48.035Z,5.87
2019-05-18T00:32:20.503Z,5.77
2019-05-18T00:33:52.975Z,8.93
2019-05-18T00:35:25.458Z,6.40
2019-05-18T00:36:57.795Z,5.00
2019-05-18T00:38:30.140Z,6.20
2019-05-18T00:40:02.568Z,5.53
2019-05-18T00:41:34.948Z,5.73
2019-05-18T00:43:07.459Z,6.40
2019-05-18T00:44:39.951Z,5.37
2019-05-18T00:46:12.473Z,4.30
2019-05-18T00:47:44.875Z,9.67
2019-05-18T00:49:17.363Z,4.93
2019-05-18T00:50:49.864Z,5.93
2019-05-18T00:52:22.290Z,4.80
2019-05-18T00:53:54.812Z,4.90
2019-05-18T00:55:27.280Z,5.37
2019-05-18T00:56:59.715Z,4.67
2019-05-18T00:58:32.268Z,4.73
2019-05-18T01:00:04.833Z,4.40
2019-05-18T01:01:37.336Z,6.87
2019-05-18T01:03:09.779Z,5.63
2019-05-18T01:04:42.217Z,5.87
2019-05-18T01:06:14.635Z,5.57
2019-05-18T01:07:47.039Z,4.03
2019-05-18T01:09:19.515Z,6.33
2019-05-18T01:10:51.963Z,4.47
2019-05-18T01:12:24.448Z,4.57
2019-05-18T01:13:56.917Z,4.70
2019-05-18T01:15:29.274Z,4.50
2019-05-18T01:17:01.777Z,3.83
2019-05-18T01:18:34.250Z,5.27
2019-05-18T01:20:06.660Z,3.37
2019-05-18T01:21:39.163Z,4.57
2019-05-18T01:23:11.568Z,4.57
2019-05-18T01:24:44.028Z,4.90
2019-05-18T01:26:16.520Z,5.57
2019-05-18T01:27:48.959Z,10.80
2019-05-18T01:29:21.378Z,3.73
2019-05-18T01:30:53.957Z,4.30
2019-05-18T01:32:26.383Z,4.20
2019-05-18T01:33:58.836Z,6.70
2019-05-18T01:35:31.321Z,4.57
2019-05-18T01:37:03.822Z,4.03
2019-05-18T01:38:36.238Z,3.87
2019-05-18T01:40:08.735Z,4.43
2019-05-18T01:41:41.159Z,4.63
2019-05-18T01:43:13.604Z,4.73
2019-05-18T01:44:46.098Z,4.83
2019-05-18T01:46:18.436Z,5.67
2019-05-18T01:47:50.863Z,4.13
2019-05-18T01:49:26.331Z,3.93
2019-05-18T01:50:58.959Z,3.33
2019-05-18T01:52:31.376Z,5.10
2019-05-18T01:54:03.901Z,5.13
2019-05-18T01:55:36.309Z,4.40
2019-05-18T01:57:08.648Z,5.53
2019-05-18T01:58:41.139Z,5.03
2019-05-18T02:00:13.614Z,3.87
2019-05-18T02:01:46.041Z,3.93
2019-05-18T02:03:18.449Z,4.10
2019-05-18T02:04:50.933Z,4.30
2019-05-18T02:06:23.472Z,3.80
2019-05-18T02:07:55.949Z,4.47
2019-05-18T02:09:28.430Z,4.67
2019-05-18T02:11:00.767Z,4.70
2019-05-18T02:12:33.267Z,5.47
2019-05-18T02:14:05.736Z,3.77
2019-05-18T02:15:38.127Z,4.20
2019-05-18T02:17:10.519Z,3.87
2019-05-18T02:18:42.925Z,4.10
2019-05-18T02:20:15.350Z,4.43
2019-05-18T02:21:47.815Z,4.23
2019-05-18T02:23:20.236Z,4.67
2019-05-18T02:24:52.630Z,3.70
2019-05-18T02:26:25.116Z,5.30
2019-05-18T02:27:57.592Z,4.20
2019-05-18T02:29:29.992Z,3.53
2019-05-18T02:31:02.354Z,4.50
2019-05-18T02:32:34.868Z,4.77
2019-05-18T02:34:07.368Z,3.60
2019-05-18T02:35:39.837Z,4.20
2019-05-18T02:37:12.371Z,4.43
2019-05-18T02:38:44.833Z,8.60
2019-05-18T02:40:17.293Z,5.00
2019-05-18T02:41:49.707Z,6.03
2019-05-18T02:43:22.233Z,7.10
2019-05-18T02:44:54.726Z,3.97
2019-05-18T02:46:27.218Z,3.80
2019-05-18T02:47:59.636Z,3.70
2019-05-18T02:49:32.047Z,4.53
2019-05-18T02:51:04.569Z,4.53
2019-05-18T02:52:37.009Z,5.07
2019-05-18T02:54:09.481Z,7.23
2019-05-18T02:55:41.924Z,3.87
2019-05-18T02:57:14.361Z,6.90
2019-05-18T02:58:47.056Z,4.13
2019-05-18T03:00:19.472Z,4.33
2019-05-18T03:01:51.826Z,5.20
2019-05-18T03:03:24.334Z,5.23
2019-05-18T03:04:56.907Z,5.57
2019-05-18T03:06:29.475Z,5.97
2019-05-18T03:08:01.916Z,5.53
2019-05-18T03:09:34.393Z,4.20
2019-05-18T03:11:06.803Z,6.57
2019-05-18T03:12:39.299Z,5.10
2019-05-18T03:14:12.404Z,6.13
2019-05-18T03:15:44.811Z,4.93
2019-05-18T03:17:17.236Z,6.70
2019-05-18T03:19:06.927Z,4.40
2019-05-18T03:20:23.862Z,4.53
2019-05-18T03:22:00.225Z,4.73
2019-05-18T03:23:30.428Z,6.77
2019-05-18T03:25:02.903Z,7.00
2019-05-18T03:26:35.371Z,5.03
2019-05-18T03:28:07.840Z,6.10
2019-05-18T03:29:40.296Z,6.07
2019-05-18T03:31:12.771Z,5.77
2019-05-18T03:32:45.241Z,5.83
2019-05-18T03:34:17.683Z,4.67
2019-05-18T03:35:50.162Z,4.90
2019-05-18T03:37:22.649Z,6.00
2019-05-18T03:38:58.023Z,5.13
2019-05-18T03:40:30.458Z,4.70
2019-05-18T03:42:03.793Z,4.23
2019-05-18T03:43:36.200Z,5.30
2019-05-18T03:45:08.690Z,6.20
2019-05-18T03:46:41.199Z,5.37
2019-05-18T03:48:13.649Z,6.80
2019-05-18T03:49:46.117Z,5.93
2019-05-18T03:51:18.634Z,5.70
2019-05-18T03:52:51.080Z,4.80
2019-05-18T03:54:23.566Z,8.47
2019-05-18T03:55:55.986Z,6.73
2019-05-18T03:57:28.475Z,6.37
2019-05-18T03:59:00.882Z,5.73
2019-05-18T04:00:33.372Z,5.07
2019-05-18T04:02:05.820Z,7.73
2019-05-18T04:03:38.349Z,4.60
2019-05-18T04:05:10.846Z,4.87
2019-05-18T04:06:43.266Z,7.67
2019-05-18T04:08:15.777Z,7.53
2019-05-18T04:09:48.196Z,6.40
2019-05-18T04:11:20.613Z,4.83
2019-05-18T04:12:53.254Z,3.87
2019-05-18T04:14:25.852Z,6.57
2019-05-18T04:15:58.219Z,5.00
2019-05-18T04:17:31.408Z,6.33
2019-05-18T04:19:04.067Z,4.77
2019-05-18T04:20:36.525Z,4.43
2019-05-18T04:22:09.115Z,4.57
2019-05-18T04:23:41.626Z,7.13
2019-05-18T04:25:14.110Z,4.67
2019-05-18T04:26:46.801Z,5.50
2019-05-18T04:28:19.691Z,3.70
2019-05-18T04:29:52.163Z,4.80
2019-05-18T04:31:24.772Z,4.60
2019-05-18T04:32:57.501Z,4.60
2019-05-18T04:34:29.924Z,4.73
2019-05-18T04:36:02.473Z,5.57
2019-05-18T04:37:35.065Z,6.57
2019-05-18T04:39:07.505Z,4.53
2019-05-18T04:40:39.987Z,4.07
2019-05-18T04:42:12.501Z,4.60
2019-05-18T04:43:44.930Z,8.60
2019-05-18T04:45:17.711Z,4.37
2019-05-18T04:46:50.309Z,6.90
2019-05-18T04:48:22.720Z,4.80
2019-05-18T04:50:05.249Z,4.50
2019-05-18T04:51:29.362Z,4.43
2019-05-18T04:53:01.766Z,5.17
2019-05-18T04:54:34.187Z,11.63
2019-05-18T04:56:06.787Z,5.03
2019-05-18T04:57:39.242Z,5.87
2019-05-18T04:59:12.093Z,4.97
2019-05-18T05:00:45.175Z,5.93
2019-05-18T05:02:17.625Z,6.53
2019-05-18T05:03:50.227Z,6.87
2019-05-18T05:05:22.856Z,7.20
2019-05-18T05:06:55.335Z,5.87
2019-05-18T05:08:28.166Z,8.63
2019-05-18T05:10:00.721Z,8.60
2019-05-18T05:11:33.120Z,5.47
2019-05-18T05:13:05.670Z,6.50
2019-05-18T05:14:38.221Z,4.83
2019-05-18T05:16:10.699Z,5.60
2019-05-18T05:17:43.278Z,6.20
2019-05-18T05:19:15.837Z,8.17
2019-05-18T05:20:48.648Z,4.50
2019-05-18T05:22:21.366Z,6.53
2019-05-18T05:23:53.875Z,5.40
2019-05-18T05:25:26.267Z,6.57
2019-05-18T05:26:58.671Z,5.00
2019-05-18T05:28:32.883Z,8.60
2019-05-18T05:30:05.290Z,4.80
2019-05-18T05:31:37.780Z,6.63
2019-05-18T05:33:10.283Z,5.87
2019-05-18T05:34:42.887Z,6.40
2019-05-18T05:36:15.504Z,5.90
2019-05-18T05:37:48.405Z,6.23
2019-05-18T05:39:21.012Z,5.97
2019-05-18T05:40:53.936Z,5.33
2019-05-18T05:42:27.288Z,5.37
2019-05-18T05:43:59.744Z,5.73
2019-05-18T05:45:32.215Z,6.07
2019-05-18T05:47:04.683Z,9.43
2019-05-18T05:48:37.145Z,6.23
2019-05-18T05:50:09.616Z,8.60
2019-05-18T05:51:42.156Z,6.43
2019-05-18T05:53:14.521Z,7.53
2019-05-18T05:54:47.039Z,6.47
2019-05-18T05:56:19.639Z,6.00
2019-05-18T05:57:51.978Z,6.10
2019-05-18T05:59:24.564Z,7.10
2019-05-18T06:00:57.213Z,6.67
2019-05-18T06:02:29.739Z,6.60
2019-05-18T06:04:02.516Z,9.90
2019-05-18T06:05:35.443Z,6.90
2019-05-18T06:07:08.178Z,8.47
2019-05-18T06:08:40.705Z,6.93
2019-05-18T06:10:15.370Z,7.33
2019-05-18T06:11:47.980Z,8.00
2019-05-18T06:13:20.431Z,8.03
2019-05-18T06:14:52.844Z,9.73
2019-05-18T06:16:25.356Z,8.83
2019-05-18T06:18:00.351Z,7.67
2019-05-18T06:19:33.285Z,8.47
2019-05-18T06:21:05.754Z,7.47
2019-05-18T06:22:38.255Z,8.37
2019-05-18T06:24:10.822Z,9.77
2019-05-18T06:25:43.375Z,8.37
2019-05-18T06:27:18.203Z,8.67
2019-05-18T06:28:50.683Z,8.77
2019-05-18T06:30:23.402Z,8.50
2019-05-18T06:31:55.830Z,7.63
2019-05-18T06:33:28.473Z,7.93
2019-05-18T06:35:01.046Z,9.27
2019-05-18T06:36:33.612Z,8.33
2019-05-18T06:38:06.215Z,8.17
2019-05-18T06:39:38.664Z,9.10
2019-05-18T06:41:11.156Z,8.93
2019-05-18T06:42:43.763Z,8.07
2019-05-18T06:44:16.188Z,9.30
2019-05-18T06:45:48.610Z,7.63
2019-05-18T06:47:21.093Z,9.57
2019-05-18T06:48:53.538Z,8.00
2019-05-18T06:50:26.020Z,9.57
2019-05-18T06:51:58.435Z,8.63
2019-05-18T06:53:30.863Z,11.60
2019-05-18T06:55:03.307Z,8.87
2019-05-18T06:56:35.802Z,8.17
2019-05-18T06:58:08.251Z,7.83
2019-05-18T06:59:40.723Z,8.27
2019-05-18T07:01:13.208Z,10.73
2019-05-18T07:02:45.639Z,8.73
2019-05-18T07:04:18.156Z,8.87
2019-05-18T07:05:50.669Z,9.50
2019-05-18T07:07:23.076Z,10.53
2019-05-18T07:08:55.614Z,8.87
2019-05-18T07:10:28.035Z,6.77
2019-05-18T07:12:00.523Z,15.77
2019-05-18T07:13:33.077Z,9.37
2019-05-18T07:15:05.544Z,7.57
2019-05-18T07:16:37.870Z,8.77
2019-05-18T07:18:10.566Z,10.03
2019-05-18T07:19:42.995Z,7.57
2019-05-18T07:21:22.150Z,9.00
2019-05-18T07:22:49.514Z,9.07
2019-05-18T07:24:22.031Z,8.17
2019-05-18T07:25:54.489Z,8.90
2019-05-18T07:27:26.962Z,9.27
2019-05-18T07:28:59.343Z,10.90
2019-05-18T07:30:31.993Z,8.97
2019-05-18T07:32:04.500Z,8.68
2019-05-18T07:33:37.338Z,9.53
2019-05-18T07:35:09.756Z,8.20
2019-05-18T07:36:42.271Z,9.97
2019-05-18T07:38:14.741Z,9.87
2019-05-18T07:39:47.115Z,9.30
2019-05-18T07:41:19.613Z,8.83
2019-05-18T07:42:52.662Z,18.87
2019-05-18T07:44:25.102Z,9.07
2019-05-18T07:45:57.599Z,8.83
2019-05-18T07:47:30.083Z,8.60
2019-05-18T07:49:02.454Z,9.97
2019-05-18T07:50:34.952Z,7.17
2019-05-18T07:52:07.432Z,8.33
2019-05-18T07:53:39.912Z,10.23
2019-05-18T07:55:12.430Z,9.93
2019-05-18T07:56:45.049Z,8.40
2019-05-18T07:58:17.523Z,8.23
2019-05-18T07:59:49.998Z,6.73
2019-05-18T08:01:30.545Z,7.57
2019-05-18T08:03:22.737Z,7.93
2019-05-18T08:05:04.649Z,7.13
2019-05-18T08:06:37.152Z,9.30
2019-05-18T08:08:09.559Z,7.93
2019-05-18T08:09:42.027Z,7.57
2019-05-18T08:11:14.475Z,8.00
2019-05-18T08:12:46.960Z,8.70
2019-05-18T08:14:19.678Z,9.00
2019-05-18T08:15:52.047Z,8.03
2019-05-18T08:17:24.456Z,9.67
2019-05-18T08:18:58.194Z,8.10
2019-05-18T08:20:30.988Z,8.85
2019-05-18T08:22:03.686Z,8.25
2019-05-18T08:23:36.079Z,8.65
2019-05-18T08:25:13.091Z,7.78
2019-05-18T08:26:45.566Z,9.10
2019-05-18T08:28:17.984Z,10.08
2019-05-18T08:29:50.490Z,7.15
2019-05-18T08:31:22.980Z,10.00
2019-05-18T08:32:55.553Z,8.88
2019-05-18T08:34:27.971Z,17.80
2019-05-18T08:36:00.476Z,9.88
2019-05-18T08:37:32.833Z,10.08
2019-05-18T08:39:05.575Z,6.67
2019-05-18T08:49:51.137Z,6.20
2019-05-18T08:52:08.210Z,7.65
2019-05-18T08:53:56.293Z,10.70
2019-05-18T08:55:46.948Z,11.50
2019-05-18T08:57:19.832Z,6.47
2019-05-18T08:58:52.331Z,6.28
2019-05-18T09:00:24.833Z,6.72
2019-05-18T09:02:15.155Z,9.55
2019-05-18T09:03:55.298Z,6.97
2019-05-18T09:05:29.597Z,7.20
2019-05-18T09:07:02.043Z,7.03
2019-05-18T09:10:27.231Z,8.60
2019-05-18T09:11:59.741Z,7.03
2019-05-18T09:13:33.483Z,9.00
2019-05-18T09:15:05.907Z,9.18
2019-05-18T09:16:38.306Z,6.80
2019-05-18T09:18:10.666Z,7.67
2019-05-18T09:19:43.007Z,8.05
2019-05-18T09:21:15.480Z,6.58
2019-05-18T09:22:48.021Z,7.95
2019-05-18T09:24:20.424Z,7.25
2019-05-18T09:25:52.934Z,8.33
2019-05-18T09:27:25.511Z,9.03
2019-05-18T09:28:57.911Z,7.62
2019-05-18T09:30:30.334Z,7.30
2019-05-18T09:32:02.861Z,7.67
2019-05-18T09:33:35.292Z,8.15
2019-05-18T09:35:07.719Z,6.58
2019-05-18T09:36:40.207Z,6.28
2019-05-18T09:38:12.572Z,8.35
2019-05-18T09:39:46.012Z,6.45
2019-05-18T09:41:18.425Z,8.43
2019-05-18T09:42:50.843Z,11.33
2019-05-18T09:44:23.286Z,9.43
2019-05-18T09:45:55.693Z,6.20
2019-05-18T09:47:28.182Z,7.47
2019-05-18T09:49:00.705Z,6.80
2019-05-18T09:50:34.980Z,7.75
2019-05-18T09:52:07.382Z,7.60
2019-05-18T09:53:50.720Z,8.50
2019-05-18T09:55:14.245Z,7.40
2019-05-18T09:57:04.917Z,9.75
2019-05-18T09:58:37.470Z,7.72
2019-05-18T10:00:09.910Z,8.98
2019-05-18T10:01:42.333Z,6.97
2019-05-18T10:03:14.823Z,7.72
2019-05-18T10:04:47.556Z,8.58
2019-05-18T10:06:20.140Z,6.70
2019-05-18T10:07:52.557Z,7.90
2019-05-18T10:09:25.469Z,9.65
2019-05-18T10:10:58.447Z,9.45
2019-05-18T10:12:30.847Z,5.80
2019-05-18T10:14:03.437Z,6.33
2019-05-18T10:15:35.946Z,4.90
2019-05-18T10:17:08.379Z,5.80
2019-05-18T10:18:40.901Z,9.45
2019-05-18T10:20:13.481Z,7.22
2019-05-18T10:21:45.927Z,7.20
2019-05-18T10:23:18.331Z,5.20
2019-05-18T10:24:50.739Z,6.03
2019-05-18T10:26:23.151Z,6.97
2019-05-18T10:27:55.582Z,4.80
2019-05-18T10:29:28.068Z,6.67
2019-05-18T10:31:00.484Z,6.08
2019-05-18T10:32:32.971Z,6.08
2019-05-18T10:34:05.410Z,5.65
2019-05-18T10:35:37.983Z,5.28
2019-05-18T10:37:10.392Z,3.45
2019-05-18T10:38:42.919Z,3.40
2019-05-18T10:40:15.362Z,3.47
2019-05-18T10:41:47.846Z,4.97
2019-05-18T10:43:20.318Z,6.45
2019-05-18T10:44:52.768Z,3.62
2019-05-18T10:46:25.360Z,5.28
2019-05-18T10:47:57.887Z,5.70
2019-05-18T10:49:30.287Z,5.72
2019-05-18T10:51:05.518Z,8.45
2019-05-18T10:52:36.823Z,6.87
2019-05-18T10:54:09.164Z,5.92
2019-05-18T10:55:41.535Z,5.87
2019-05-18T10:57:13.988Z,5.92
2019-05-18T10:58:46.538Z,7.83
2019-05-18T11:00:19.036Z,7.03
2019-05-18T11:01:51.621Z,7.55
2019-05-18T11:03:24.095Z,7.72
2019-05-18T11:04:56.503Z,6.47
2019-05-18T11:06:28.930Z,5.62
2019-05-18T11:08:01.335Z,4.97
2019-05-18T11:09:33.807Z,6.00
2019-05-18T11:11:06.237Z,7.85
2019-05-18T11:12:38.580Z,6.90
2019-05-18T11:14:11.046Z,7.00
2019-05-18T11:15:43.452Z,7.53
2019-05-18T11:17:15.884Z,8.43
2019-05-18T11:18:48.278Z,6.80
2019-05-18T11:20:20.708Z,6.62
2019-05-18T11:21:53.128Z,5.55
2019-05-18T11:23:25.617Z,5.22
2019-05-18T11:24:58.093Z,6.95
2019-05-18T11:26:30.429Z,5.03
2019-05-18T11:28:02.938Z,5.97
2019-05-18T11:29:35.495Z,5.33
2019-05-18T11:31:07.855Z,3.45
2019-05-18T11:32:40.489Z,4.00
2019-05-18T11:34:12.972Z,3.70
2019-05-18T11:35:45.607Z,5.85
2019-05-18T11:37:18.012Z,5.25
2019-05-18T11:38:50.443Z,6.53
2019-05-18T11:40:22.847Z,6.10
2019-05-18T11:41:55.251Z,5.72
2019-05-18T11:43:27.760Z,6.30
2019-05-18T11:45:00.172Z,4.70
2019-05-18T11:46:32.507Z,4.62
2019-05-18T11:48:05.009Z,6.53
2019-05-18T11:49:37.427Z,6.33
2019-05-18T11:51:09.900Z,7.33
2019-05-18T11:52:42.388Z,7.65
2019-05-18T11:54:14.748Z,6.28
2019-05-18T11:55:47.172Z,4.90
2019-05-18T11:57:19.575Z,6.05
2019-05-18T11:58:51.938Z,5.78
2019-05-18T12:00:24.355Z,7.45
2019-05-18T12:01:56.835Z,4.53
2019-05-18T12:03:29.185Z,5.92
2019-05-18T12:05:01.681Z,5.47
2019-05-18T12:06:34.159Z,5.10
2019-05-18T12:08:06.563Z,5.95
2019-05-18T12:09:39.187Z,6.67
2019-05-18T12:11:11.605Z,5.37
2019-05-18T12:12:44.007Z,6.37
2019-05-18T12:14:16.408Z,5.87
2019-05-18T12:15:48.898Z,6.00
2019-05-18T12:17:21.232Z,5.75
2019-05-18T12:18:53.642Z,6.83
2019-05-18T12:20:26.136Z,6.92
2019-05-18T12:21:58.475Z,5.10
2019-05-18T12:23:31.147Z,5.05
2019-05-18T12:25:03.555Z,4.17
2019-05-18T12:26:35.908Z,3.75
2019-05-18T12:28:08.469Z,5.92
2019-05-18T12:29:40.919Z,5.05
2019-05-18T12:31:13.351Z,3.62
2019-05-18T12:32:45.757Z,4.28
2019-05-18T12:34:18.244Z,4.28
2019-05-18T12:35:50.607Z,2.55
2019-05-18T12:37:23.031Z,3.70
2019-05-18T12:38:55.720Z,4.55
2019-05-18T12:40:28.130Z,3.10
2019-05-18T12:42:00.588Z,5.12
2019-05-18T12:43:33.016Z,4.40
2019-05-18T12:45:05.437Z,3.67
2019-05-18T12:46:37.857Z,2.83
2019-05-18T12:48:10.355Z,3.75
2019-05-18T12:49:42.768Z,4.55
2019-05-18T12:51:15.245Z,2.65
2019-05-18T12:52:47.751Z,2.70
2019-05-18T12:54:29.064Z,2.42
2019-05-18T12:55:54.261Z,2.95
2019-05-18T12:57:26.786Z,3.58
2019-05-18T12:58:59.167Z,2.85
2019-05-18T13:00:32.543Z,3.70
2019-05-18T13:02:05.541Z,2.60
2019-05-18T13:03:38.164Z,1.52
2019-05-18T13:05:10.931Z,2.15
2019-05-18T13:06:43.558Z,1.98
2019-05-18T13:08:16.073Z,2.40
2019-05-18T13:09:48.683Z,4.03
2019-05-18T13:11:21.095Z,2.35
2019-05-18T13:12:53.432Z,1.72
2019-05-18T13:14:25.877Z,6.65
2019-05-18T13:15:58.282Z,1.57
2019-05-18T13:17:30.699Z,3.15
2019-05-18T13:19:03.048Z,1.85
2019-05-18T13:20:35.459Z,4.30
2019-05-18T13:22:08.092Z,1.40
2019-05-18T13:23:41.015Z,1.40
2019-05-18T13:25:13.857Z,1.57
2019-05-18T13:26:46.673Z,3.92
2019-05-18T13:28:19.143Z,1.52
2019-05-18T13:29:51.577Z,1.20
2019-05-18T13:31:24.076Z,1.85
2019-05-18T13:32:56.475Z,2.40
2019-05-18T13:34:28.880Z,3.25
2019-05-18T13:36:01.339Z,3.00
2019-05-18T13:37:33.841Z,1.40
2019-05-18T13:39:06.323Z,1.22
2019-05-18T13:40:38.761Z,1.20
2019-05-18T13:42:11.189Z,2.02
2019-05-18T13:43:43.672Z,4.17
2019-05-18T13:45:16.089Z,1.62
2019-05-18T13:46:48.594Z,2.47
2019-05-18T13:48:21.070Z,1.17
2019-05-18T13:49:53.474Z,3.70
2019-05-18T13:51:25.901Z,1.40
2019-05-18T13:52:58.386Z,2.52
2019-05-18T13:54:30.807Z,1.20
2019-05-18T13:56:03.300Z,1.82
2019-05-18T13:57:35.712Z,3.40
2019-05-18T13:59:10.237Z,2.08
2019-05-18T14:00:45.021Z,1.98
2019-05-18T14:02:17.444Z,1.40
2019-05-18T14:03:49.872Z,2.33
2019-05-18T14:05:22.285Z,1.62
2019-05-18T14:06:54.708Z,1.12
2019-05-18T14:08:27.328Z,1.50
2019-05-18T14:09:59.910Z,1.12
2019-05-18T14:11:32.398Z,1.37
2019-05-18T14:13:04.741Z,3.65
2019-05-18T14:14:37.073Z,1.15
2019-05-18T14:16:09.514Z,1.87
2019-05-18T14:17:41.855Z,1.10
2019-05-18T14:19:14.359Z,1.00
2019-05-18T14:20:46.756Z,2.08
2019-05-18T14:22:19.138Z,0.85
2019-05-18T14:23:51.618Z,1.50
2019-05-18T14:25:24.127Z,1.45
2019-05-18T14:26:56.565Z,1.22
2019-05-18T14:28:29.127Z,2.92
2019-05-18T14:30:01.644Z,1.30
2019-05-18T14:31:34.087Z,2.65
2019-05-18T14:33:06.491Z,1.55
2019-05-18T14:34:38.899Z,1.30
2019-05-18T14:36:11.302Z,2.52
2019-05-18T14:37:43.808Z,1.65
2019-05-18T14:39:16.303Z,1.20
2019-05-18T14:40:48.742Z,1.62
2019-05-18T14:42:21.249Z,1.42
2019-05-18T14:43:53.736Z,1.20
2019-05-18T14:45:26.144Z,1.32
2019-05-18T14:46:58.644Z,2.10
2019-05-18T14:48:31.074Z,2.72
2019-05-18T14:50:03.508Z,1.00
2019-05-18T14:51:36.130Z,3.22
2019-05-18T14:53:08.616Z,1.10
2019-05-18T14:54:41.055Z,1.30
2019-05-18T14:56:14.872Z,1.22
2019-05-18T14:57:47.429Z,0.90
2019-05-18T14:59:19.938Z,1.95
2019-05-18T15:00:52.354Z,1.82
2019-05-18T15:02:25.083Z,1.77
2019-05-18T15:03:59.684Z,1.20
2019-05-18T15:05:32.123Z,1.00
2019-05-18T15:07:04.820Z,0.90
2019-05-18T15:08:37.591Z,1.20
2019-05-18T15:10:10.033Z,3.25
2019-05-18T15:11:42.548Z,1.10
2019-05-18T15:13:15.027Z,1.82
2019-05-18T15:14:47.549Z,1.27
2019-05-18T15:16:20.151Z,1.20
2019-05-18T15:17:52.574Z,1.10
2019-05-18T15:19:25.061Z,1.10
2019-05-18T15:20:58.215Z,5.40
2019-05-18T15:22:30.716Z,2.22
2019-05-18T15:24:15.443Z,1.12
2019-05-18T15:25:51.145Z,1.90
2019-05-18T15:27:23.219Z,2.42
2019-05-18T15:28:55.810Z,3.20
2019-05-18T15:30:28.401Z,1.42
2019-05-18T15:32:00.920Z,4.28
2019-05-18T15:33:33.401Z,1.80
2019-05-18T15:35:06.960Z,1.30
2019-05-18T15:36:39.544Z,1.52
2019-05-18T15:38:21.685Z,1.27
2019-05-18T15:43:29.065Z,2.87
2019-05-18T15:45:04.570Z,1.70
2019-05-18T15:46:39.014Z,1.47
2019-05-18T15:48:11.583Z,3.00
2019-05-18T15:49:44.372Z,1.60
2019-05-18T15:51:17.083Z,1.57
2019-05-18T15:52:49.584Z,1.65
2019-05-18T15:54:22.200Z,1.62
2019-05-18T15:56:05.300Z,0.88
2019-05-18T15:57:28.852Z,1.90
2019-05-18T15:59:01.422Z,1.17
2019-05-18T16:00:33.903Z,3.65
2019-05-18T16:02:06.770Z,1.72
2019-05-18T16:03:39.274Z,1.20
2019-05-18T16:05:11.617Z,2.17
2019-05-18T16:06:44.095Z,2.70
2019-05-18T16:08:16.445Z,4.25
2019-05-18T16:09:48.780Z,2.90
2019-05-18T16:11:21.263Z,3.77
2019-05-18T16:12:53.755Z,3.98
2019-05-18T16:14:28.078Z,2.15
2019-05-18T16:16:05.087Z,1.85
2019-05-18T16:17:39.841Z,2.98
2019-05-18T16:19:11.808Z,1.50
2019-05-18T16:20:44.207Z,1.07
2019-05-18T16:22:16.612Z,1.42
2019-05-18T16:23:48.971Z,1.45
2019-05-18T16:25:21.403Z,2.70
2019-05-18T16:26:53.932Z,1.95
2019-05-18T16:28:26.404Z,1.30
2019-05-18T16:29:59.644Z,1.57
2019-05-18T16:31:33.626Z,1.62
2019-05-18T16:33:06.296Z,1.95
2019-05-18T16:34:38.835Z,3.30
2019-05-18T16:37:46.859Z,1.57
2019-05-18T16:39:19.357Z,3.65
2019-05-18T16:40:51.777Z,1.30
2019-05-18T16:42:24.985Z,2.20
2019-05-18T16:43:57.384Z,1.55
2019-05-18T16:45:29.824Z,2.47
2019-05-18T16:47:02.277Z,1.95
2019-05-18T16:48:35.182Z,2.35
2019-05-18T16:50:07.899Z,1.30
2019-05-18T16:51:40.467Z,1.37
2019-05-18T16:53:12.862Z,1.65
2019-05-18T16:54:45.404Z,1.90
2019-05-18T16:56:17.885Z,3.92
2019-05-18T16:57:50.223Z,2.37
2019-05-18T16:59:22.932Z,2.12
2019-05-18T17:00:55.356Z,1.25
2019-05-18T17:02:31.535Z,1.85
2019-05-18T17:04:01.800Z,1.27
2019-05-18T17:05:34.354Z,1.57
2019-05-18T17:07:06.871Z,2.15
2019-05-18T17:08:39.294Z,4.20
2019-05-18T17:10:13.315Z,3.35
2019-05-18T17:11:48.019Z,2.92
2019-05-18T17:13:20.179Z,1.72
2019-05-18T17:14:52.599Z,1.42
2019-05-18T17:16:25.020Z,1.22
2019-05-18T17:17:57.517Z,2.52
2019-05-18T17:19:30.014Z,2.52
2019-05-18T17:21:02.552Z,1.42
2019-05-18T17:22:35.070Z,1.32
2019-05-18T17:24:07.552Z,3.70
2019-05-18T17:25:39.892Z,1.72
2019-05-18T17:27:12.507Z,1.60
2019-05-18T17:28:45.215Z,1.85
2019-05-18T17:30:17.659Z,2.10
2019-05-18T17:31:50.173Z,2.45
2019-05-18T17:33:22.680Z,1.85
2019-05-18T17:34:55.112Z,2.42
2019-05-18T17:36:27.596Z,2.75
2019-05-18T17:38:00.122Z,2.87
2019-05-18T17:39:32.535Z,1.25
2019-05-18T17:41:05.007Z,4.67
2019-05-18T17:42:37.442Z,3.25
2019-05-18T17:44:09.859Z,2.17
2019-05-18T17:45:42.284Z,1.90
2019-05-18T17:47:14.691Z,2.70
2019-05-18T17:48:47.077Z,1.10
2019-05-18T17:50:19.558Z,2.60
2019-05-18T17:51:52.027Z,1.77
2019-05-18T17:53:24.870Z,1.72
2019-05-18T17:54:57.524Z,1.82
2019-05-18T17:56:30.073Z,2.10
2019-05-18T17:58:02.516Z,2.42
2019-05-18T17:59:35.026Z,2.33
2019-05-18T18:01:07.460Z,1.80
2019-05-18T18:02:39.895Z,1.62
2019-05-18T18:04:12.433Z,3.00
2019-05-18T18:05:44.932Z,1.42
2019-05-18T18:07:17.315Z,1.67
2019-05-18T18:08:49.807Z,2.17
2019-05-18T18:10:22.288Z,1.60
2019-05-18T18:11:54.651Z,1.65
2019-05-18T18:13:27.031Z,1.90
2019-05-18T18:15:00.511Z,5.03
2019-05-18T18:16:32.936Z,3.60
2019-05-18T18:18:05.539Z,3.08
2019-05-18T18:19:38.076Z,4.72
2019-05-18T18:21:10.868Z,1.85
2019-05-18T18:22:43.274Z,1.30
2019-05-18T18:24:15.782Z,1.57
2019-05-18T18:25:48.223Z,1.40
2019-05-18T18:27:25.249Z,1.70
2019-05-18T18:28:54.734Z,2.10
2019-05-18T18:30:27.093Z,2.67
2019-05-18T18:31:59.757Z,2.45
2019-05-18T18:33:40.581Z,2.02
2019-05-18T18:35:15.932Z,1.72
2019-05-18T18:36:48.372Z,1.67
2019-05-18T18:38:21.083Z,1.40
2019-05-18T18:39:53.463Z,4.00
2019-05-18T18:41:25.952Z,5.05
2019-05-18T18:42:58.461Z,2.45
2019-05-18T18:44:30.835Z,3.35
2019-05-18T18:46:03.565Z,2.20
2019-05-18T18:47:36.156Z,3.27
2019-05-18T18:49:08.700Z,2.50
2019-05-18T18:50:41.305Z,3.37
2019-05-18T18:52:13.872Z,2.45
2019-05-18T18:53:46.437Z,2.17
2019-05-18T18:55:19.086Z,3.72
2019-05-18T18:56:51.861Z,3.35
2019-05-18T18:58:24.813Z,3.87
2019-05-18T18:59:57.233Z,3.55
2019-05-18T19:01:29.733Z,3.33
2019-05-18T19:03:02.220Z,2.58
2019-05-18T19:04:35.151Z,3.75
2019-05-18T19:06:07.558Z,2.83
2019-05-18T19:07:39.980Z,3.47
2019-05-18T19:09:12.386Z,3.15
2019-05-18T19:10:45.083Z,4.33
2019-05-18T19:12:17.502Z,2.92
2019-05-18T19:13:49.900Z,3.50
2019-05-18T19:15:22.445Z,2.70
2019-05-18T19:16:54.927Z,3.75
2019-05-18T19:18:27.409Z,3.50
2019-05-18T19:19:59.818Z,2.95
2019-05-18T19:21:32.255Z,5.53
2019-05-18T19:23:04.835Z,4.33
2019-05-18T19:24:37.240Z,3.10
2019-05-18T19:26:09.654Z,3.58
2019-05-18T19:27:54.012Z,4.05
2019-05-18T19:29:16.252Z,3.37
2019-05-18T19:30:48.696Z,3.70
2019-05-18T19:32:21.461Z,3.50
2019-05-18T19:33:54.271Z,3.77
2019-05-18T19:35:27.059Z,5.62
2019-05-18T19:36:59.562Z,4.53
2019-05-18T19:38:32.156Z,4.35
2019-05-18T19:40:04.516Z,5.37
2019-05-18T19:41:37.081Z,7.62
2019-05-18T19:43:09.936Z,5.45
2019-05-18T19:44:42.531Z,5.20
2019-05-18T19:46:14.964Z,3.60
2019-05-18T19:47:47.357Z,3.72
2019-05-18T19:49:20.063Z,4.40
2019-05-18T19:50:52.543Z,4.50
2019-05-18T19:52:25.023Z,6.10
2019-05-18T19:53:57.534Z,4.45
2019-05-18T19:55:30.081Z,6.40
2019-05-18T19:57:02.863Z,3.42
2019-05-18T19:58:36.043Z,5.20
2019-05-18T20:00:08.538Z,7.12
2019-05-18T20:01:41.006Z,6.42
2019-05-18T20:03:13.418Z,4.65
2019-05-18T20:05:03.908Z,4.12
2019-05-18T20:06:19.941Z,4.65
2019-05-18T20:07:52.279Z,5.55
2019-05-18T20:09:24.708Z,3.95
2019-05-18T20:10:57.208Z,3.83
2019-05-18T20:12:30.091Z,6.35
2019-05-18T20:14:02.861Z,4.45
2019-05-18T20:15:36.335Z,4.15
2019-05-18T20:17:08.869Z,6.70
2019-05-18T20:18:41.818Z,4.25
2019-05-18T20:20:14.540Z,3.47
2019-05-18T20:21:47.051Z,5.60
2019-05-18T20:23:19.771Z,5.60
2019-05-18T20:24:52.260Z,6.40
2019-05-18T20:26:24.768Z,3.58
2019-05-18T20:27:57.562Z,4.03
2019-05-18T20:29:30.196Z,4.03
2019-05-18T20:31:03.013Z,3.85
2019-05-18T20:32:35.896Z,4.00
2019-05-18T20:34:08.333Z,7.72
2019-05-18T20:35:40.672Z,4.37
2019-05-18T20:37:13.177Z,4.97
2019-05-18T20:38:45.653Z,4.75
2019-05-18T20:40:18.068Z,6.85
2019-05-18T20:41:50.613Z,4.70
2019-05-18T20:43:23.097Z,4.10
2019-05-18T20:44:55.462Z,5.03
2019-05-18T20:46:27.828Z,5.30
2019-05-18T20:48:00.227Z,4.67
2019-05-18T20:49:32.666Z,4.67
2019-05-18T20:51:05.110Z,7.60